Time;durP1;ratioP1;P1;durP2;ratioP2;P2;SDS_P1;SDS_P2;PMS_P1;PMS_P2;Temp;Humidity;BMP_temperature;BMP_pressure;BME280_temperature;BME280_humidity;BME280_pressure;Samples;Min_cycle;Max_cycle;Signal;HPM_P1;HPM_P2
2021/01/20 00:01:44;;;;;;;28.05;13.32;;;;;;;3.31;78.59;98375.72;5093707;28;19916;-75
2021/01/20 00:04:09;;;;;;;;;;;;;;;3.24;76.32;98373.97;5094061;28;20091;-74
2021/01/20 00:06:35;;;;;;;21.15;11.90;;;;;;;3.12;75.06;98362.38;5092191;28;19923;-75
2021/01/20 00:09:00;;;;;;;23.95;12.73;;;;;;;3.04;75.59;98357.31;5093300;28;20024;-75
2021/01/20 00:11:25;;;;;;;21.83;11.20;;;;;;;3.03;76.17;98355.69;5092263;28;20049;-75
2021/01/20 00:13:53;;;;;;;23.75;14.20;;;;;;;3.09;77.27;98354.75;5093871;28;20032;-75
2021/01/20 00:16:19;;;;;;;22.50;12.68;;;;;;;3.22;78.63;98353.66;5093575;28;20028;-76
2021/01/20 00:18:44;;;;;;;19.45;13.07;;;;;;;3.30;79.67;98353.28;5092235;28;20025;-75
2021/01/20 00:21:10;;;;;;;22.55;13.93;;;;;;;3.56;80.65;98362.72;5093381;28;20393;-76
2021/01/20 00:23:35;;;;;;;;;;;;;;;3.63;80.31;98349.91;5094442;28;20112;-75
2021/01/20 00:26:00;;;;;;;20.63;11.82;;;;;;;3.68;78.71;98350.81;5113486;28;19920;-74
2021/01/20 00:28:26;;;;;;;;;;;;;;;3.52;76.38;98358.84;5112560;28;20055;-75
2021/01/20 00:30:51;;;;;;;20.23;11.98;;;;;;;3.43;75.42;98360.28;5113679;28;19937;-75
2021/01/20 00:33:16;;;;;;;21.10;10.75;;;;;;;3.38;74.34;98360.19;5113750;28;20027;-75
2021/01/20 00:35:42;;;;;;;20.08;11.32;;;;;;;3.34;74.16;98353.63;5113591;28;20023;-75
2021/01/20 00:38:07;;;;;;;;;;;;;;;3.33;74.17;98358.19;5112732;28;20462;-76
2021/01/20 00:40:32;;;;;;;23.73;11.73;;;;;;;3.30;73.84;98355.16;5113256;28;20002;-74
2021/01/20 00:42:58;;;;;;;;;;;;;;;3.25;73.20;98345.06;5114165;28;20020;-76
2021/01/20 00:45:23;;;;;;;22.83;11.40;;;;;;;3.20;73.23;98353.88;5112334;28;20441;-76
2021/01/20 00:47:48;;;;;;;18.88;11.05;;;;;;;3.17;73.18;98358.94;5113083;28;20031;-75
2021/01/20 00:50:14;;;;;;;;;;;;;;;3.14;73.51;98349.44;5113950;28;20374;-75
2021/01/20 00:52:39;;;;;;;17.05;10.43;;;;;;;3.08;73.62;98353.09;5111019;28;19914;-75
2021/01/20 00:55:06;;;;;;;;;;;;;;;3.09;74.50;98351.22;5113845;28;20023;-75
2021/01/20 00:57:31;;;;;;;26.55;12.45;;;;;;;3.06;74.04;98357.91;5113345;28;20272;-75
2021/01/20 00:59:57;;;;;;;;;;;;;;;3.07;73.53;98351.44;5113687;28;20035;-75
2021/01/20 01:02:22;;;;;;;17.23;10.07;;;;;;;3.02;72.79;98345.09;5112674;28;19915;-75
2021/01/20 01:04:47;;;;;;;16.70;10.73;;;;;;;3.03;73.41;98355.69;5113282;28;20031;-74
2021/01/20 01:07:13;;;;;;;;;;;;;;;3.07;74.10;98354.13;5113164;28;20067;-76
2021/01/20 01:09:38;;;;;;;19.42;10.60;;;;;;;3.13;74.85;98357.78;5112859;28;20425;-75
2021/01/20 01:12:03;;;;;;;;;;;;;;;3.19;74.61;98360.38;5112021;28;20050;-75
2021/01/20 01:14:29;;;;;;;18.33;10.27;;;;;;;3.32;75.84;98355.75;5113427;28;20391;-75
2021/01/20 01:16:54;;;;;;;;;;;;;;;3.37;74.69;98353.13;5113528;28;20023;-75
2021/01/20 01:19:20;;;;;;;15.88;9.00;;;;;;;3.29;74.24;98348.91;5112809;28;19919;-76
2021/01/20 01:21:46;;;;;;;21.65;11.52;;;;;;;3.25;73.89;98361.28;5111788;28;20036;-76
2021/01/20 01:24:11;;;;;;;17.13;10.25;;;;;;;3.38;76.49;98352.09;5113087;28;20103;-75
2021/01/20 01:26:36;;;;;;;;;;;;;;;3.44;75.37;98343.03;5113546;27;20499;-75
2021/01/20 01:29:02;;;;;;;16.15;10.02;;;;;;;3.37;74.56;98347.72;5113104;28;19919;-76
2021/01/20 01:31:27;;;;;;;;;;;;;;;3.34;73.72;98350.91;5113604;27;20024;-76
2021/01/20 01:33:52;;;;;;;22.38;11.07;;;;;;;3.27;73.04;98352.94;5112878;28;19916;-77
2021/01/20 01:36:18;;;;;;;;;;;;;;;3.24;73.10;98344.25;5113500;28;20494;-75
2021/01/20 01:38:43;;;;;;;20.25;9.27;;;;;;;3.22;73.78;98343.66;5112278;28;19912;-75
2021/01/20 01:41:08;;;;;;;;;;;;;;;3.30;74.47;98347.03;5114179;28;20032;-75
2021/01/20 01:43:34;;;;;;;17.25;10.05;;;;;;;3.44;76.19;98343.84;5113626;28;19998;-76
2021/01/20 01:45:59;;;;;;;;;;;;;;;3.68;77.52;98361.63;5114682;28;20035;-75
2021/01/20 01:48:25;;;;;;;13.63;9.18;;;;;;;3.91;77.60;98349.06;5113753;28;19939;-75
2021/01/20 01:50:50;;;;;;;;;;;;;;;4.11;76.84;98349.41;5115149;27;20055;-77
2021/01/20 01:53:16;;;;;;;16.80;8.18;;;;;;;4.06;76.21;98352.88;5116147;28;19942;-77
2021/01/20 01:55:42;;;;;;;16.98;9.38;;;;;;;4.01;75.55;98360.88;5115561;28;20083;-79
2021/01/20 01:58:08;;;;;;;17.75;9.88;;;;;;;3.91;74.08;98355.31;5116993;28;20108;-77
2021/01/20 02:00:34;;;;;;;15.45;9.90;;;;;;;3.93;74.71;98353.16;5114869;28;20028;-78
2021/01/20 02:03:01;;;;;;;14.02;9.40;;;;;;;3.84;73.88;98364.63;5114221;28;20030;-79
2021/01/20 02:05:28;;;;;;;19.20;10.20;;;;;;;3.70;72.85;98350.53;5114658;28;20023;-76
2021/01/20 02:07:55;;;;;;;33.25;11.80;;;;;;;3.71;73.82;98349.50;5113154;27;20062;-76
2021/01/20 02:10:21;;;;;;;22.70;10.73;;;;;;;3.76;74.31;98349.56;5091155;28;20020;-77
2021/01/20 02:13:10;;;;;;;17.45;9.82;;;;;;;3.81;74.40;98354.28;5097687;28;20503;-75
2021/01/20 02:15:52;;;;;;;19.52;9.88;;;;;;;3.78;73.99;98348.28;5111596;28;20388;-76
2021/01/20 02:18:20;;;;;;;24.33;11.35;;;;;;;3.70;71.88;98353.25;5111339;28;20039;-75
2021/01/20 02:21:23;;;;;;;21.60;10.40;;;;;;;3.65;70.84;98356.69;5111342;28;20016;-74
2021/01/20 02:23:51;;;;;;;18.45;11.05;;;;;;;3.55;71.24;98352.97;5111179;28;20484;-75
2021/01/20 02:26:19;;;;;;;17.02;9.93;;;;;;;3.51;71.35;98344.50;5108960;28;20055;-75
2021/01/20 02:28:55;;;;;;;16.88;10.23;;;;;;;3.43;71.73;98349.47;5111610;28;20050;-75
2021/01/20 02:31:27;;;;;;;19.75;10.93;;;;;;;3.40;71.96;98344.56;5111102;28;20045;-74
2021/01/20 02:33:57;;;;;;;16.33;10.02;;;;;;;3.44;71.22;98340.31;5112871;27;20042;-74
2021/01/20 02:36:23;;;;;;;17.17;9.80;;;;;;;3.38;71.48;98349.38;5090601;28;20063;-76
2021/01/20 02:38:49;;;;;;;14.13;9.38;;;;;;;3.41;71.23;98338.09;5097570;28;20468;-75
2021/01/20 02:41:29;;;;;;;;;;;;;;;3.37;71.39;98336.91;5111786;28;20118;-75
2021/01/20 02:44:03;;;;;;;20.48;9.82;;;;;;;3.31;71.72;98333.31;5110978;28;20306;-75
2021/01/20 02:46:29;;;;;;;14.88;9.77;;;;;;;3.31;72.13;98340.59;5111293;28;20034;-75
2021/01/20 02:48:56;;;;;;;15.63;9.32;;;;;;;3.31;72.30;98337.88;5109685;28;20143;-75
2021/01/20 02:51:33;;;;;;;17.17;9.27;;;;;;;3.35;72.38;98334.47;5110511;28;20114;-74
2021/01/20 02:54:01;;;;;;;17.33;9.75;;;;;;;3.36;72.45;98337.97;5109521;28;20028;-75
2021/01/20 02:56:28;;;;;;;16.80;8.88;;;;;;;3.40;72.81;98336.44;5110871;28;20430;-75
2021/01/20 02:58:55;;;;;;;14.40;9.90;;;;;;;3.46;72.78;98335.47;5096111;28;20020;-75
2021/01/20 03:01:23;;;;;;;18.75;10.05;;;;;;;3.48;73.14;98339.56;5090620;28;20028;-75
2021/01/20 03:03:51;;;;;;;13.40;9.05;;;;;;;3.45;72.90;98325.72;5090014;28;20027;-75
2021/01/20 03:06:17;;;;;;;16.85;9.50;;;;;;;3.52;73.10;98346.16;5090484;28;20035;-74
2021/01/20 03:08:43;;;;;;;13.75;8.38;;;;;;;3.54;72.58;98344.03;5090441;28;20024;-75
2021/01/20 03:11:09;;;;;;;13.10;8.68;;;;;;;3.54;72.61;98341.31;5101648;28;20027;-75
2021/01/20 03:13:39;;;;;;;19.10;10.80;;;;;;;3.55;72.83;98342.97;5110623;28;20034;-76
2021/01/20 03:16:05;;;;;;;19.23;9.30;;;;;;;3.51;72.55;98338.31;5112151;28;20538;-75
2021/01/20 03:18:31;;;;;;;17.02;8.85;;;;;;;3.49;72.58;98335.00;5114545;28;20522;-74
2021/01/20 03:20:58;;;;;;;14.02;8.63;;;;;;;3.45;72.46;98326.53;5105967;28;20020;-75
2021/01/20 03:23:23;;;;;;;16.15;9.55;;;;;;;3.38;72.51;98330.47;5094195;28;20035;-74
2021/01/20 03:25:49;;;;;;;16.65;9.65;;;;;;;3.46;73.56;98325.50;5094444;28;20135;-76
2021/01/20 03:28:14;;;;;;;;;;;;;;;3.50;73.46;98321.25;5094526;28;20058;-75
2021/01/20 03:30:39;;;;;;;13.63;8.50;;;;;;;3.46;73.08;98324.66;5112819;28;19912;-74
2021/01/20 03:33:05;;;;;;;;;;;;;;;3.50;73.40;98326.66;5115015;28;20031;-75
2021/01/20 03:35:34;;;;;;;10.48;7.45;;;;;;;3.49;73.87;98325.00;5112457;28;19965;-75
2021/01/20 03:38:00;;;;;;;11.73;8.20;;;;;;;3.51;74.04;98320.16;5113353;28;20999;-75
2021/01/20 03:40:25;;;;;;;17.23;10.07;;;;;;;3.38;73.46;98314.25;5111574;28;20020;-75
2021/01/20 03:42:51;;;;;;;19.48;9.85;;;;;;;3.24;72.12;98332.59;5113953;28;20020;-74
2021/01/20 03:45:16;;;;;;;26.67;10.10;;;;;;;3.05;72.64;98323.84;5114769;28;20020;-75
2021/01/20 03:47:42;;;;;;;;;;;;;;;2.97;73.05;98326.91;5114394;28;20111;-74
2021/01/20 03:50:08;;;;;;;19.58;9.60;;;;;;;2.88;73.01;98319.41;5114509;28;19923;-75
2021/01/20 03:52:33;;;;;;;21.17;11.70;;;;;;;2.82;73.47;98329.25;5111899;28;20471;-75
2021/01/20 03:54:59;;;;;;;21.77;11.48;;;;;;;2.81;73.98;98338.44;5114086;28;20118;-75
2021/01/20 03:57:24;;;;;;;;;;;;;;;2.75;73.58;98339.38;5113459;28;20020;-75
2021/01/20 03:59:49;;;;;;;24.02;12.23;;;;;;;2.65;73.75;98337.28;5114159;28;20003;-74
2021/01/20 04:02:15;;;;;;;18.73;10.18;;;;;;;2.53;73.94;98325.66;5112674;28;20023;-75
2021/01/20 04:04:40;;;;;;;;;;;;;;;2.63;73.93;98341.28;5114380;28;20024;-74
2021/01/20 04:07:05;;;;;;;14.65;9.07;;;;;;;2.43;74.57;98333.53;5114294;28;19916;-75
2021/01/20 04:09:31;;;;;;;;;;;;;;;2.45;74.90;98333.28;5114145;28;20019;-75
2021/01/20 04:11:56;;;;;;;20.58;10.50;;;;;;;2.53;75.17;98335.63;5112268;28;19985;-75
2021/01/20 04:14:22;;;;;;;16.42;9.85;;;;;;;2.46;75.36;98334.91;5113535;28;20034;-75
2021/01/20 04:16:47;;;;;;;;;;;;;;;2.48;74.96;98324.69;5114519;28;20492;-76
2021/01/20 04:19:13;;;;;;;16.10;9.27;;;;;;;2.38;74.93;98327.19;5113732;28;19916;-75
2021/01/20 04:21:38;;;;;;;20.48;10.13;;;;;;;2.45;75.03;98328.69;5113945;28;20106;-74
2021/01/20 04:24:04;;;;;;;;;;;;;;;2.48;75.74;98333.63;5113994;28;20024;-75
2021/01/20 04:26:29;;;;;;;24.05;11.48;;;;;;;2.41;75.26;98334.81;5111537;28;19916;-75
2021/01/20 04:28:55;;;;;;;20.42;11.48;;;;;;;2.38;75.60;98327.97;5113884;28;20019;-76
2021/01/20 04:31:20;;;;;;;;;;;;;;;2.56;75.32;98340.56;5114064;28;20034;-77
2021/01/20 04:33:45;;;;;;;18.88;11.70;;;;;;;2.36;75.45;98334.66;5112744;28;19916;-79
2021/01/20 04:36:11;;;;;;;18.25;11.02;;;;;;;2.32;75.67;98333.53;5114299;28;20031;-74
2021/01/20 04:38:36;;;;;;;29.45;13.77;;;;;;;2.27;75.86;98328.81;5114406;28;20019;-75
2021/01/20 04:41:01;;;;;;;;;;;;;;;2.38;75.43;98324.50;5114195;28;20414;-75
2021/01/20 04:43:27;;;;;;;23.83;10.40;;;;;;;2.41;75.73;98326.72;5113384;28;19906;-75
2021/01/20 04:45:53;;;;;;;;;;;;;;;2.45;75.88;98335.97;5115376;28;20415;-74
2021/01/20 04:48:19;;;;;;;20.08;10.82;;;;;;;2.38;75.91;98327.19;5113823;28;19966;-75
2021/01/20 04:50:50;;;;;;;20.67;11.70;;;;;;;2.40;75.98;98320.50;5115421;28;20126;-75
2021/01/20 04:53:19;;;;;;;26.95;12.77;;;;;;;2.49;76.37;98329.06;5116871;28;20027;-75
2021/01/20 04:55:46;;;;;;;24.50;13.85;;;;;;;2.43;76.13;98330.00;5117975;28;20402;-81
2021/01/20 04:58:13;;;;;;;29.63;14.65;;;;;;;2.45;75.74;98333.28;5120738;28;20070;-76
2021/01/20 05:00:39;;;;;;;23.33;11.32;;;;;;;2.52;75.94;98326.72;5118549;28;20109;-76
2021/01/20 05:03:06;;;;;;;32.05;15.60;;;;;;;2.50;75.80;98320.75;5117791;28;20028;-81
2021/01/20 05:05:33;;;;;;;24.60;13.73;;;;;;;2.50;75.97;98334.22;5116008;28;20388;-74
2021/01/20 05:08:03;;;;;;;25.52;13.85;;;;;;;2.52;75.89;98328.59;5112935;28;20069;-74
2021/01/20 05:10:28;;;;;;;28.00;12.10;;;;;;;2.53;75.97;98330.22;5112787;28;20038;-75
2021/01/20 05:12:54;;;;;;;20.20;12.15;;;;;;;2.38;76.10;98316.38;5113107;28;20031;-75
2021/01/20 05:15:28;;;;;;;;;;;;;;;2.47;75.87;98331.19;5113695;28;20035;-75
2021/01/20 05:17:58;;;;;;;22.25;11.55;;;;;;;2.36;76.19;98318.47;5113020;27;19912;-75
2021/01/20 05:20:34;;;;;;;18.27;9.23;;;;;;;2.31;76.65;98324.59;5112808;28;20103;-74
2021/01/20 05:23:02;;;;;;;19.25;9.57;;;;;;;2.27;76.68;98326.09;5112846;28;20024;-77
2021/01/20 05:25:32;;;;;;;21.27;10.93;;;;;;;2.20;77.27;98321.88;5112567;28;20079;-74
2021/01/20 05:28:18;;;;;;;19.15;10.18;;;;;;;2.20;76.63;98311.06;5113251;28;20135;-73
2021/01/20 05:30:52;;;;;;;12.90;7.63;;;;;;;2.00;76.74;98320.34;5112816;28;20056;-75
2021/01/20 05:33:22;;;;;;;15.38;9.13;;;;;;;1.89;77.21;98337.28;5112270;28;20030;-74
2021/01/20 05:36:04;;;;;;;22.10;11.65;;;;;;;1.93;77.22;98340.34;5110286;28;20032;-74
2021/01/20 05:38:36;;;;;;;22.05;13.05;;;;;;;1.90;77.29;98346.22;5112011;28;20472;-75
2021/01/20 05:41:30;;;;;;;18.60;10.02;;;;;;;1.80;77.04;98341.38;5112511;28;20053;-75
2021/01/20 05:44:07;;;;;;;18.67;9.95;;;;;;;1.78;76.85;98342.66;5112295;28;20495;-74
2021/01/20 05:46:35;;;;;;;21.17;10.45;;;;;;;1.66;77.08;98339.09;5112419;28;20066;-76
2021/01/20 05:49:01;;;;;;;22.73;10.80;;;;;;;1.65;77.25;98349.06;5112068;28;20047;-75
2021/01/20 05:51:38;;;;;;;18.63;10.45;;;;;;;1.67;77.80;98351.50;5111073;28;20019;-74
2021/01/20 05:54:03;;;;;;;20.27;11.30;;;;;;;1.50;78.06;98356.72;5103530;28;20028;-75
2021/01/20 05:56:30;;;;;;;23.70;11.98;;;;;;;1.64;78.38;98358.19;5099833;28;20023;-75
2021/01/20 05:58:57;;;;;;;17.50;11.07;;;;;;;1.57;78.74;98352.06;5104446;28;20024;-75
2021/01/20 06:01:23;;;;;;;18.67;11.52;;;;;;;1.60;78.50;98360.50;5099715;28;20031;-75
2021/01/20 06:03:49;;;;;;;17.73;11.55;;;;;;;1.57;78.71;98365.53;5098629;28;20411;-75
2021/01/20 06:06:16;;;;;;;26.48;13.63;;;;;;;1.58;79.25;98375.28;5099533;28;21365;-74
2021/01/20 06:08:42;;;;;;;24.55;12.88;;;;;;;1.67;79.21;98367.69;5099752;28;20016;-74
2021/01/20 06:11:08;;;;;;;25.73;13.35;;;;;;;1.62;78.76;98371.09;5101086;28;20541;-75
2021/01/20 06:13:34;;;;;;;;;;;;;;;1.66;79.01;98369.56;5099724;28;20047;-76
2021/01/20 06:16:15;;;;;;;23.23;11.43;;;;;;;1.70;79.38;98368.06;5099964;28;19911;-76
2021/01/20 06:19:08;;;;;;;21.27;11.75;;;;;;;1.67;79.50;98375.78;5099748;28;20034;-75
2021/01/20 06:21:35;;;;;;;22.20;11.73;;;;;;;1.79;79.71;98377.47;5101447;28;20839;-76
2021/01/20 06:24:10;;;;;;;18.92;11.05;;;;;;;1.74;79.47;98361.16;5102954;28;20059;-75
2021/01/20 06:26:50;;;;;;;13.02;7.78;;;;;;;1.78;79.49;98369.63;5095840;28;20135;-76
2021/01/20 06:29:20;;;;;;;19.73;11.07;;;;;;;1.77;79.57;98359.88;5107940;28;20050;-75
2021/01/20 06:31:47;;;;;;;15.60;10.10;;;;;;;1.81;80.19;98358.38;5094911;28;20016;-75
2021/01/20 06:34:12;;;;;;;19.63;10.68;;;;;;;1.91;79.98;98358.66;5099526;28;20035;-75
2021/01/20 06:36:38;;;;;;;19.63;10.82;;;;;;;1.96;79.64;98367.69;5100625;28;20396;-75
2021/01/20 06:39:22;;;;;;;;;;;;;;;2.04;80.33;98363.81;5109548;28;20027;-76
2021/01/20 06:41:47;;;;;;;15.57;9.60;;;;;;;2.08;80.42;98378.50;5100172;28;19958;-75
2021/01/20 06:44:14;;;;;;;18.10;10.77;;;;;;;2.23;80.96;98378.88;5105923;28;20016;-75
2021/01/20 06:46:55;;;;;;;15.75;10.10;;;;;;;2.55;81.80;98376.72;5103723;28;20027;-76
2021/01/20 06:49:21;;;;;;;13.75;7.15;;;;;;;2.85;81.73;98369.31;5103779;28;20479;-76
2021/01/20 06:52:11;;;;;;;15.63;8.80;;;;;;;3.17;80.99;98378.69;5094885;28;20020;-74
2021/01/20 06:54:46;;;;;;;11.02;6.60;;;;;;;3.45;80.54;98372.50;5096531;28;20024;-78
2021/01/20 06:57:41;;;;;;;12.38;7.15;;;;;;;3.71;79.73;98382.78;5091494;28;20090;-75
2021/01/20 07:00:11;;;;;;;13.45;6.70;;;;;;;3.88;78.70;98377.44;5087702;28;20047;-75
2021/01/20 07:02:56;;;;;;;12.68;7.40;;;;;;;4.08;77.77;98383.19;5098169;28;20038;-75
2021/01/20 07:05:31;;;;;;;16.45;8.05;;;;;;;3.94;77.02;98387.28;5094695;28;20832;-75
2021/01/20 07:07:57;;;;;;;18.35;10.48;;;;;;;3.72;76.68;98383.59;5095771;28;20110;-75
2021/01/20 07:10:23;;;;;;;;;;;;;;;3.62;76.97;98378.81;5107698;28;20088;-75
2021/01/20 07:13:10;;;;;;;14.85;8.98;;;;;;;3.58;77.38;98388.47;5109831;28;19923;-75
2021/01/20 07:15:37;;;;;;;19.48;9.27;;;;;;;3.59;77.45;98384.72;5108905;28;20473;-75
2021/01/20 07:18:04;;;;;;;15.68;10.10;;;;;;;3.58;77.44;98383.06;5105200;28;20020;-75
2021/01/20 07:20:29;;;;;;;14.73;9.10;;;;;;;3.66;77.94;98379.16;5086561;28;20051;-75
2021/01/20 07:22:55;;;;;;;15.43;9.25;;;;;;;3.83;78.22;98385.44;5086619;28;20063;-74
2021/01/20 07:25:23;;;;;;;;;;;;;;;4.00;78.02;98389.00;5102868;28;20109;-74
2021/01/20 07:27:53;;;;;;;14.93;8.98;;;;;;;4.21;77.29;98390.19;5108620;28;19992;-74
2021/01/20 07:30:18;;;;;;;30.67;13.60;;;;;;;4.30;76.82;98384.13;5106270;28;20028;-75
2021/01/20 07:32:44;;;;;;;24.73;12.63;;;;;;;4.37;76.65;98383.16;5091332;28;20032;-79
2021/01/20 07:35:19;;;;;;;;;;;;;;;4.48;76.16;98387.69;5087321;28;20362;-76
2021/01/20 07:37:45;;;;;;;17.15;9.07;;;;;;;4.65;75.79;98386.63;5088304;28;19912;-75
2021/01/20 07:40:11;;;;;;;13.40;7.43;;;;;;;4.75;75.32;98388.69;5087195;28;20039;-75
2021/01/20 07:42:41;;;;;;;10.25;6.75;;;;;;;4.79;74.80;98376.28;5086999;28;20145;-76
2021/01/20 07:45:07;;;;;;;14.95;8.40;;;;;;;4.85;74.92;98396.97;5090067;28;20500;-75
2021/01/20 07:47:46;;;;;;;10.60;7.50;;;;;;;4.87;75.03;98394.81;5104207;28;20769;-74
2021/01/20 07:50:12;;;;;;;11.32;7.07;;;;;;;4.97;74.57;98396.88;5085754;28;20055;-74
2021/01/20 07:52:39;;;;;;;14.65;7.30;;;;;;;4.96;74.45;98395.22;5099165;28;20016;-75
2021/01/20 07:55:16;;;;;;;11.27;7.43;;;;;;;5.01;74.55;98396.09;5094693;28;20063;-74
2021/01/20 07:57:42;;;;;;;12.07;7.32;;;;;;;5.08;74.20;98399.47;5087564;28;20059;-75
2021/01/20 08:00:09;;;;;;;13.98;7.68;;;;;;;5.10;74.06;98405.47;5089143;28;20056;-75
2021/01/20 08:02:46;;;;;;;14.38;8.55;;;;;;;5.10;74.22;98397.34;5096618;28;20052;-75
2021/01/20 08:05:12;;;;;;;15.18;7.95;;;;;;;5.04;74.17;98398.34;5099280;28;20543;-75
2021/01/20 08:07:37;;;;;;;11.25;7.10;;;;;;;5.11;74.36;98404.38;5097475;28;20036;-74
2021/01/20 08:10:03;;;;;;;12.30;7.35;;;;;;;5.13;74.08;98401.44;5099412;28;20028;-75
2021/01/20 08:12:29;;;;;;;;;;;;;;;5.14;74.62;98400.34;5101355;28;20028;-74
2021/01/20 08:14:57;;;;;;;9.77;7.05;;;;;;;5.29;74.48;98406.03;5100888;28;20342;-73
2021/01/20 08:17:23;;;;;;;11.63;7.50;;;;;;;5.27;74.48;98394.59;5100844;28;20063;-75
2021/01/20 08:19:49;;;;;;;14.18;7.95;;;;;;;5.36;74.30;98399.31;5106115;28;20476;-75
2021/01/20 08:22:16;;;;;;;14.23;8.43;;;;;;;5.29;73.56;98393.25;5091723;28;20048;-76
2021/01/20 08:24:46;;;;;;;11.50;7.88;;;;;;;5.37;73.91;98406.41;5091008;28;20056;-76
2021/01/20 08:27:14;;;;;;;12.68;8.63;;;;;;;5.38;73.60;98399.09;5103807;28;20062;-75
2021/01/20 08:29:49;;;;;;;14.73;9.65;;;;;;;5.38;73.61;98409.94;5111971;28;20063;-75
2021/01/20 08:32:15;;;;;;;13.00;8.13;;;;;;;5.44;73.61;98405.41;5111960;28;20047;-75
2021/01/20 08:34:42;;;;;;;18.00;8.20;;;;;;;5.51;73.57;98411.47;5111272;28;20532;-75
2021/01/20 08:37:16;;;;;;;13.50;8.60;;;;;;;5.47;73.34;98410.31;5111646;28;20053;-76
2021/01/20 08:39:55;;;;;;;12.38;8.70;;;;;;;5.58;73.84;98414.78;5111841;28;20165;-76
2021/01/20 08:42:23;;;;;;;13.75;7.53;;;;;;;5.66;74.18;98422.50;5111904;28;20381;-76
2021/01/20 08:45:12;;;;;;;13.02;8.75;;;;;;;5.66;73.66;98425.22;5111393;28;20030;-76
2021/01/20 08:48:07;;;;;;;12.82;8.05;;;;;;;5.70;74.45;98426.38;5109469;28;20035;-76
2021/01/20 08:50:34;;;;;;;12.68;6.75;;;;;;;5.78;73.64;98423.19;5077260;28;20071;-76
2021/01/20 08:53:06;;;;;;;15.60;9.05;;;;;;;5.72;73.28;98424.22;5089575;28;20032;-77
2021/01/20 08:55:35;;;;;;;12.55;7.72;;;;;;;5.90;73.39;98422.03;5098708;28;20016;-76
2021/01/20 08:58:30;;;;;;;15.88;9.55;;;;;;;5.97;73.74;98440.00;5110768;28;20476;-75
2021/01/20 09:01:14;;;;;;;15.65;8.70;;;;;;;6.11;73.64;98433.91;5090614;28;20042;-75
2021/01/20 09:03:40;;;;;;;17.95;8.00;;;;;;;5.99;72.56;98427.00;5092871;28;20077;-76
2021/01/20 09:06:16;;;;;;;18.98;8.60;;;;;;;5.92;72.81;98433.44;5100396;28;20020;-76
2021/01/20 09:08:42;;;;;;;19.00;7.93;;;;;;;5.81;72.96;98436.25;5097872;28;21150;-75
2021/01/20 09:11:07;;;;;;;15.13;8.48;;;;;;;5.80;73.33;98440.03;5098211;28;20043;-76
2021/01/20 09:13:33;;;;;;;19.27;9.05;;;;;;;5.82;73.01;98438.75;5099299;28;20032;-74
2021/01/20 09:15:59;;;;;;;11.57;7.85;;;;;;;5.88;72.94;98442.34;5098965;28;20260;-74
2021/01/20 09:18:25;;;;;;;16.98;9.27;;;;;;;5.91;73.06;98450.81;5098229;28;20443;-74
2021/01/20 09:20:52;;;;;;;16.83;8.43;;;;;;;6.00;73.04;98444.94;5098131;28;20024;-75
2021/01/20 09:23:19;;;;;;;13.80;8.13;;;;;;;5.98;73.11;98449.81;5099913;28;20020;-74
2021/01/20 09:25:44;;;;;;;12.10;8.32;;;;;;;6.00;73.07;98451.19;5092741;28;20462;-75
2021/01/20 09:28:10;;;;;;;13.38;8.52;;;;;;;6.02;73.05;98438.16;5096648;27;20060;-76
2021/01/20 09:30:36;;;;;;;;;;;;;;;6.03;73.31;98450.69;5100002;28;20020;-74
2021/01/20 09:33:01;;;;;;;14.60;8.25;;;;;;;6.05;73.42;98453.94;5100298;28;19916;-74
2021/01/20 09:35:27;;;;;;;11.77;7.53;;;;;;;6.08;73.67;98456.16;5108648;28;20492;-74
2021/01/20 09:37:53;;;;;;;12.80;7.68;;;;;;;6.07;73.54;98454.53;5110988;28;20524;-75
2021/01/20 09:40:23;;;;;;;13.52;7.97;;;;;;;6.18;73.66;98450.84;5109278;28;20385;-75
2021/01/20 09:42:50;;;;;;;11.25;7.25;;;;;;;6.15;73.42;98454.06;5109454;28;20525;-74
2021/01/20 09:45:18;;;;;;;16.67;7.97;;;;;;;6.21;73.19;98444.06;5104413;28;20043;-75
2021/01/20 09:47:45;;;;;;;12.00;7.78;;;;;;;6.23;73.35;98456.34;5085471;28;20036;-74
2021/01/20 09:50:14;;;;;;;14.18;8.02;;;;;;;6.21;73.97;98453.06;5103441;28;20470;-76
2021/01/20 09:52:40;;;;;;;10.13;6.90;;;;;;;6.20;73.97;98445.19;5088445;28;20111;-74
2021/01/20 09:55:07;;;;;;;13.73;7.22;;;;;;;6.13;74.02;98450.81;5098790;28;20084;-76
2021/01/20 09:57:33;;;;;;;12.45;8.38;;;;;;;6.08;74.32;98436.31;5110156;28;20034;-74
2021/01/20 10:00:01;;;;;;;14.57;9.13;;;;;;;6.13;74.46;98450.81;5109268;28;20480;-74
2021/01/20 10:02:26;;;;;;;10.85;6.93;;;;;;;6.05;75.15;98448.53;5109208;28;20035;-76
2021/01/20 10:04:51;;;;;;;12.95;7.57;;;;;;;6.09;75.07;98441.50;5101363;28;20494;-75
2021/01/20 10:07:17;;;;;;;;;;;;;;;6.12;75.55;98448.31;5088679;28;20089;-75
2021/01/20 10:09:43;;;;;;;10.32;7.38;;;;;;;6.12;75.80;98443.72;5089302;28;20295;-75
2021/01/20 10:12:11;;;;;;;13.05;8.30;;;;;;;5.95;76.71;98437.56;5087727;28;20032;-76
2021/01/20 10:14:38;;;;;;;10.63;7.35;;;;;;;5.94;77.51;98441.34;5089218;28;20106;-74
2021/01/20 10:17:05;;;;;;;10.93;7.85;;;;;;;5.84;78.46;98433.03;5089738;28;20016;-75
2021/01/20 10:19:30;;;;;;;16.73;9.90;;;;;;;5.74;79.17;98430.19;5089125;28;20346;-75
2021/01/20 10:21:56;;;;;;;11.55;8.00;;;;;;;5.67;79.75;98429.59;5094738;28;20076;-75
2021/01/20 10:24:22;;;;;;;;;;;;;;;5.63;79.78;98426.56;5109776;28;20043;-75
2021/01/20 10:26:47;;;;;;;11.50;6.95;;;;;;;5.61;80.42;98420.53;5099032;28;19912;-76
2021/01/20 10:29:13;;;;;;;;;;;;;;;5.61;80.78;98423.25;5090198;28;20048;-75
2021/01/20 10:31:40;;;;;;;16.27;8.00;;;;;;;5.55;80.59;98416.13;5087963;28;20002;-75
2021/01/20 10:34:06;;;;;;;13.02;7.85;;;;;;;5.57;81.30;98407.75;5087670;28;20024;-76
2021/01/20 10:36:32;;;;;;;13.40;8.00;;;;;;;5.65;82.06;98410.00;5089071;28;20393;-75
2021/01/20 10:38:59;;;;;;;12.18;7.57;;;;;;;5.59;81.35;98411.84;5094812;28;20043;-75
2021/01/20 10:41:25;;;;;;;15.07;9.82;;;;;;;5.59;81.84;98406.41;5108317;28;20024;-75
2021/01/20 10:43:52;;;;;;;14.95;7.65;;;;;;;5.54;81.39;98403.66;5093821;28;20881;-75
2021/01/20 10:46:19;;;;;;;10.10;8.18;;;;;;;5.52;82.01;98388.66;5094301;28;20028;-74
2021/01/20 10:48:45;;;;;;;16.90;9.05;;;;;;;5.60;82.21;98390.97;5099141;28;20081;-74
2021/01/20 10:51:11;;;;;;;15.63;8.65;;;;;;;5.67;81.77;98380.75;5087880;28;20024;-75
2021/01/20 10:53:40;;;;;;;17.02;10.27;;;;;;;5.50;81.48;98386.22;5089052;28;20077;-75
2021/01/20 10:56:06;;;;;;;18.33;12.45;;;;;;;5.37;81.40;98387.41;5087696;28;20075;-75
2021/01/20 10:58:33;;;;;;;26.23;13.75;;;;;;;5.28;82.39;98371.81;5088083;28;20031;-75
2021/01/20 11:00:59;;;;;;;23.63;11.77;;;;;;;5.17;83.36;98370.84;5087818;28;20449;-74
2021/01/20 11:03:24;;;;;;;23.75;14.07;;;;;;;5.00;83.89;98369.25;5095708;28;20114;-75
2021/01/20 11:05:50;;;;;;;28.58;15.30;;;;;;;4.92;84.37;98367.78;5107597;28;20075;-75
2021/01/20 11:08:15;;;;;;;22.08;14.82;;;;;;;4.95;84.91;98372.69;5107610;28;20118;-74
2021/01/20 11:10:40;;;;;;;23.85;14.70;;;;;;;4.84;86.11;98365.50;5107078;28;20078;-74
2021/01/20 11:13:08;;;;;;;;;;;;;;;4.81;86.20;98366.84;5108893;28;20100;-75
2021/01/20 11:15:38;;;;;;;22.20;13.00;;;;;;;4.75;85.82;98372.41;5109462;28;19912;-74
2021/01/20 11:18:06;;;;;;;22.73;14.20;;;;;;;4.66;86.62;98368.47;5109537;28;20019;-75
2021/01/20 11:20:33;;;;;;;26.02;14.63;;;;;;;4.72;86.94;98371.03;5109289;28;20114;-75
2021/01/20 11:22:59;;;;;;;29.77;16.13;;;;;;;4.58;87.37;98363.47;5109158;28;20049;-76
2021/01/20 11:25:25;;;;;;;26.10;16.35;;;;;;;4.60;87.24;98366.75;5108868;28;20450;-75
2021/01/20 11:27:51;;;;;;;29.33;16.83;;;;;;;4.56;87.22;98360.19;5089778;28;20059;-75
2021/01/20 11:30:17;;;;;;;35.05;16.58;;;;;;;4.52;87.64;98361.75;5088885;28;20861;-74
2021/01/20 11:32:43;;;;;;;25.67;15.70;;;;;;;4.45;88.14;98350.28;5104270;28;20034;-75
2021/01/20 11:35:10;;;;;;;31.90;17.70;;;;;;;4.44;88.85;98348.63;5109472;28;20475;-75
2021/01/20 11:37:36;;;;;;;28.27;15.00;;;;;;;4.55;89.47;98350.41;5111206;28;20019;-75
2021/01/20 11:40:03;;;;;;;41.17;17.88;;;;;;;4.61;88.86;98338.59;5112810;28;20384;-75
2021/01/20 11:42:30;;;;;;;24.75;14.35;;;;;;;4.52;89.65;98340.91;5100820;28;20035;-75
2021/01/20 11:44:55;;;;;;;32.08;16.60;;;;;;;4.51;90.19;98341.97;5090998;28;20548;-74
2021/01/20 11:47:21;;;;;;;25.55;15.32;;;;;;;4.53;90.18;98333.59;5092701;28;20148;-75